createdAt,value
2018-06-10T00:01:02.974Z,22.96
2018-06-10T00:03:33.549Z,22.89
2018-06-10T00:06:04.073Z,22.83
2018-06-10T00:08:34.642Z,22.74
2018-06-10T00:11:05.190Z,22.66
2018-06-10T00:13:35.747Z,22.59
2018-06-10T00:16:06.313Z,22.53
2018-06-10T00:18:36.915Z,22.76
2018-06-10T00:21:07.633Z,22.57
2018-06-10T00:23:38.246Z,22.08
2018-06-10T00:26:08.899Z,21.18
2018-06-10T00:28:44.727Z,20.38
2018-06-10T00:31:15.262Z,20.03
2018-06-10T00:33:45.782Z,19.83
2018-06-10T00:36:16.346Z,19.80
2018-06-10T00:38:46.909Z,19.61
2018-06-10T00:41:17.461Z,19.46
2018-06-10T00:44:17.248Z,19.44
2018-06-10T00:46:53.322Z,19.46
2018-06-10T00:49:24.549Z,19.47
2018-06-10T00:51:55.893Z,19.48
2018-06-10T00:54:26.787Z,19.49
2018-06-10T00:57:01.697Z,19.51
2018-06-10T00:59:40.228Z,19.67
2018-06-10T01:02:14.653Z,19.49
2018-06-10T01:04:46.318Z,19.47
2018-06-10T01:07:16.939Z,19.34
2018-06-10T01:09:47.952Z,19.44
2018-06-10T01:12:18.619Z,19.31
2018-06-10T01:14:49.218Z,19.33
2018-06-10T01:17:19.902Z,19.32
2018-06-10T01:19:50.456Z,19.43
2018-06-10T01:22:21.127Z,19.59
2018-06-10T01:24:51.677Z,19.85
2018-06-10T01:27:22.249Z,20.00
2018-06-10T01:29:52.792Z,20.13
2018-06-10T01:32:23.378Z,20.21
2018-06-10T01:34:53.937Z,20.37
2018-06-10T01:37:24.545Z,20.44
2018-06-10T01:39:55.114Z,20.52
2018-06-10T01:42:25.693Z,20.60
2018-06-10T01:44:56.233Z,20.66
2018-06-10T01:47:26.842Z,20.69
2018-06-10T01:49:57.444Z,20.72
2018-06-10T01:52:27.960Z,20.71
2018-06-10T01:54:58.609Z,20.72
2018-06-10T01:57:29.409Z,20.70
2018-06-10T01:59:59.963Z,20.68
2018-06-10T02:02:30.493Z,20.70
2018-06-10T02:05:01.099Z,20.70
2018-06-10T02:07:31.844Z,20.75
2018-06-10T02:10:02.419Z,20.82
2018-06-10T02:12:33.029Z,20.45
2018-06-10T02:15:03.577Z,20.32
2018-06-10T02:17:34.123Z,20.33
2018-06-10T02:20:04.708Z,20.40
2018-06-10T02:22:35.288Z,20.34
2018-06-10T02:25:05.931Z,20.31
2018-06-10T02:27:36.568Z,20.31
2018-06-10T02:30:07.383Z,20.40
2018-06-10T02:32:37.930Z,20.43
2018-06-10T02:35:08.538Z,20.46
2018-06-10T02:37:39.049Z,20.49
2018-06-10T02:40:09.603Z,20.44
2018-06-10T02:43:10.891Z,20.53
2018-06-10T02:45:41.529Z,20.54
2018-06-10T02:48:12.104Z,20.48
2018-06-10T02:50:42.716Z,20.44
2018-06-10T02:53:13.250Z,20.47
2018-06-10T02:55:43.844Z,20.51
2018-06-10T02:58:14.381Z,20.48
2018-06-10T03:00:44.958Z,20.46
2018-06-10T03:03:15.468Z,20.44
2018-06-10T03:05:46.146Z,20.47
2018-06-10T03:08:16.753Z,20.32
2018-06-10T03:10:47.456Z,20.25
2018-06-10T03:13:18.220Z,20.23
2018-06-10T03:15:48.862Z,20.22
2018-06-10T03:18:19.396Z,20.23
2018-06-10T03:20:50.018Z,20.25
2018-06-10T03:23:20.618Z,20.25
2018-06-10T03:25:51.208Z,20.33
2018-06-10T03:28:21.776Z,20.36
2018-06-10T03:30:52.453Z,20.33
2018-06-10T03:33:22.994Z,20.46
2018-06-10T03:35:53.638Z,20.43
2018-06-10T03:38:24.242Z,20.34
2018-06-10T03:40:54.860Z,20.25
2018-06-10T03:43:25.414Z,20.22
2018-06-10T03:45:56.073Z,20.16
2018-06-10T03:48:26.683Z,20.13
2018-06-10T03:50:57.267Z,20.10
2018-06-10T03:53:27.816Z,20.13
2018-06-10T03:55:58.361Z,20.04
2018-06-10T03:58:28.962Z,19.98
2018-06-10T04:00:59.675Z,20.03
2018-06-10T04:03:30.272Z,20.11
2018-06-10T04:06:00.839Z,20.13
2018-06-10T04:08:31.414Z,20.13
2018-06-10T04:11:01.992Z,20.04
2018-06-10T04:13:32.555Z,20.04
2018-06-10T04:16:03.121Z,20.09
2018-06-10T04:18:33.692Z,20.10
2018-06-10T04:21:04.225Z,20.11
2018-06-10T04:23:34.824Z,20.09
2018-06-10T04:26:05.460Z,20.08
2018-06-10T04:28:36.026Z,20.08
2018-06-10T04:31:06.619Z,20.06
2018-06-10T04:33:37.165Z,20.04
2018-06-10T04:36:07.759Z,20.05
2018-06-10T04:38:38.320Z,20.07
2018-06-10T04:41:08.924Z,20.09
2018-06-10T04:43:39.552Z,20.09
2018-06-10T04:46:10.148Z,20.08
2018-06-10T04:48:40.732Z,20.11
2018-06-10T04:51:11.292Z,20.07
2018-06-10T04:53:41.869Z,20.06
2018-06-10T04:56:12.474Z,20.08
2018-06-10T04:58:43.046Z,20.13
2018-06-10T05:01:13.626Z,20.20
2018-06-10T05:03:44.200Z,20.23
2018-06-10T05:06:14.759Z,20.25
2018-06-10T05:08:45.287Z,20.30
2018-06-10T05:11:15.868Z,20.30
2018-06-10T05:13:46.443Z,20.42
2018-06-10T05:16:17.066Z,20.45
2018-06-10T05:18:47.604Z,20.44
2018-06-10T05:21:18.196Z,20.46
2018-06-10T05:23:48.729Z,20.51
2018-06-10T05:26:19.365Z,20.56
2018-06-10T05:28:49.897Z,20.59
2018-06-10T05:31:20.501Z,20.53
2018-06-10T05:33:51.118Z,20.58
2018-06-10T05:36:21.699Z,20.56
2018-06-10T05:38:52.811Z,20.50
2018-06-10T05:41:23.406Z,20.53
2018-06-10T05:43:54.029Z,20.59
2018-06-10T05:46:24.598Z,20.64
2018-06-10T05:48:56.137Z,20.68
2018-06-10T05:51:26.694Z,20.74
2018-06-10T05:53:57.321Z,20.84
2018-06-10T05:56:27.972Z,20.83
2018-06-10T05:58:58.634Z,20.80
2018-06-10T06:01:29.155Z,20.70
2018-06-10T06:03:59.731Z,20.74
2018-06-10T06:06:30.292Z,20.73
2018-06-10T06:09:00.916Z,20.80
2018-06-10T06:11:31.523Z,20.81
2018-06-10T06:14:02.182Z,20.80
2018-06-10T06:16:32.850Z,20.85
2018-06-10T06:19:03.588Z,20.84
2018-06-10T06:21:34.295Z,20.83
2018-06-10T06:24:04.888Z,20.88
2018-06-10T06:26:35.462Z,20.91
2018-06-10T06:29:06.117Z,20.90
2018-06-10T06:31:36.661Z,21.00
2018-06-10T06:34:07.341Z,21.12
2018-06-10T06:36:38.038Z,21.18
2018-06-10T06:39:09.084Z,21.33
2018-06-10T06:41:39.750Z,21.39
2018-06-10T06:44:10.301Z,21.50
2018-06-10T06:46:41.253Z,21.60
2018-06-10T06:49:11.801Z,21.66
2018-06-10T06:51:42.413Z,21.83
2018-06-10T06:54:13.003Z,21.92
2018-06-10T06:56:43.679Z,21.97
2018-06-10T06:59:14.304Z,21.98
2018-06-10T07:01:44.950Z,22.02
2018-06-10T07:04:15.583Z,22.02
2018-06-10T07:06:46.340Z,22.02
2018-06-10T07:09:17.005Z,22.08
2018-06-10T07:11:47.704Z,22.14
2018-06-10T07:14:18.370Z,22.23
2018-06-10T07:16:48.982Z,22.30
2018-06-10T07:19:19.629Z,22.47
2018-06-10T07:21:50.236Z,22.71
2018-06-10T07:24:20.887Z,22.84
2018-06-10T07:26:51.468Z,23.01
2018-06-10T07:29:22.946Z,23.10
2018-06-10T07:31:53.531Z,23.27
2018-06-10T07:34:24.184Z,23.23
2018-06-10T07:36:54.714Z,23.21
2018-06-10T07:39:25.397Z,23.16
2018-06-10T07:41:56.067Z,22.99
2018-06-10T07:44:26.643Z,22.93
2018-06-10T07:46:57.436Z,23.00
2018-06-10T07:49:28.094Z,23.09
2018-06-10T07:51:58.720Z,23.14
2018-06-10T07:54:29.362Z,23.15
2018-06-10T07:56:59.973Z,23.16
2018-06-10T07:59:30.613Z,23.20
2018-06-10T08:02:01.367Z,23.25
2018-06-10T08:04:31.989Z,23.31
2018-06-10T08:07:02.664Z,23.38
2018-06-10T08:09:33.272Z,23.45
2018-06-10T08:12:03.886Z,23.57
2018-06-10T08:14:34.427Z,23.66
2018-06-10T08:17:05.069Z,23.81
2018-06-10T08:19:35.736Z,23.95
2018-06-10T08:22:06.332Z,24.09
2018-06-10T08:24:36.849Z,24.19
2018-06-10T08:27:07.490Z,24.24
2018-06-10T08:29:38.115Z,24.28
2018-06-10T08:32:08.771Z,24.25
2018-06-10T08:34:39.527Z,24.25
2018-06-10T08:37:10.237Z,24.18
2018-06-10T08:39:40.844Z,24.26
2018-06-10T08:42:11.422Z,24.49
2018-06-10T08:44:41.942Z,24.76
2018-06-10T08:47:12.778Z,25.07
2018-06-10T08:49:43.706Z,25.26
2018-06-10T08:52:14.476Z,25.40
2018-06-10T08:54:45.095Z,25.46
2018-06-10T08:57:15.645Z,25.49
2018-06-10T08:59:46.255Z,25.47
2018-06-10T09:02:16.789Z,25.48
2018-06-10T09:04:47.367Z,25.46
2018-06-10T09:07:17.916Z,25.39
2018-06-10T09:09:48.449Z,25.52
2018-06-10T09:12:19.012Z,25.73
2018-06-10T09:14:49.598Z,25.77
2018-06-10T09:17:20.389Z,25.79
2018-06-10T09:19:51.006Z,25.82
2018-06-10T09:22:21.681Z,25.81
2018-06-10T09:24:52.219Z,25.90
2018-06-10T09:27:22.860Z,25.98
2018-06-10T09:29:53.440Z,26.07
2018-06-10T09:32:24.092Z,26.10
2018-06-10T09:34:54.678Z,26.04
2018-06-10T09:37:25.284Z,26.05
2018-06-10T09:39:55.886Z,26.04
2018-06-10T09:42:26.480Z,25.96
2018-06-10T09:44:57.069Z,25.92
2018-06-10T09:47:27.695Z,25.96
2018-06-10T09:49:58.310Z,25.98
2018-06-10T09:52:28.859Z,26.01
2018-06-10T09:54:59.424Z,26.11
2018-06-10T09:57:29.992Z,26.09
2018-06-10T10:00:00.556Z,26.07
2018-06-10T10:02:31.171Z,26.04
2018-06-10T10:05:01.722Z,26.01
2018-06-10T10:07:32.328Z,26.02
2018-06-10T10:10:03.020Z,25.95
2018-06-10T10:12:33.615Z,25.84
2018-06-10T10:15:04.263Z,25.82
2018-06-10T10:17:34.812Z,25.72
2018-06-10T10:20:05.448Z,25.69
2018-06-10T10:22:36.002Z,25.68
2018-06-10T10:25:06.671Z,25.72
2018-06-10T10:27:37.365Z,25.57
2018-06-10T10:30:08.048Z,25.60
2018-06-10T10:32:39.269Z,25.75
2018-06-10T10:35:09.864Z,25.93
2018-06-10T10:37:40.542Z,26.13
2018-06-10T10:40:11.234Z,26.33
2018-06-10T10:42:41.568Z,26.45
2018-06-10T10:45:12.136Z,26.50
2018-06-10T10:47:42.689Z,26.70
2018-06-10T10:50:13.297Z,26.97
2018-06-10T10:52:43.877Z,27.34
2018-06-10T10:55:14.536Z,27.70
2018-06-10T10:57:45.096Z,28.02
2018-06-10T11:00:15.674Z,28.09
2018-06-10T11:02:46.305Z,28.09
2018-06-10T11:05:16.946Z,28.09
2018-06-10T11:07:47.553Z,28.11
2018-06-10T11:10:18.267Z,28.20
2018-06-10T11:12:48.802Z,28.45
2018-06-10T11:15:19.408Z,28.89
2018-06-10T11:17:49.997Z,29.01
2018-06-10T11:20:20.611Z,28.87
2018-06-10T11:22:51.173Z,28.72
2018-06-10T11:25:21.881Z,28.98
2018-06-10T11:27:52.442Z,29.42
2018-06-10T11:30:22.680Z,29.75
2018-06-10T11:32:53.097Z,30.09
2018-06-10T11:35:23.719Z,30.17
2018-06-10T11:38:00.926Z,30.26
2018-06-10T11:40:31.677Z,30.42
2018-06-10T11:43:02.503Z,30.30
2018-06-10T11:45:33.201Z,30.15
2018-06-10T11:48:03.796Z,29.81
2018-06-10T11:50:34.340Z,29.50
2018-06-10T11:53:04.917Z,29.45
2018-06-10T11:55:35.476Z,29.37
2018-06-10T11:58:06.148Z,29.39
2018-06-10T12:00:36.720Z,29.60
2018-06-10T12:03:07.403Z,29.87
2018-06-10T12:05:37.956Z,29.89
2018-06-10T12:08:08.542Z,29.76
2018-06-10T12:10:39.221Z,29.60
2018-06-10T12:13:09.701Z,29.40
2018-06-10T12:15:40.342Z,29.34
2018-06-10T12:18:10.925Z,29.33
2018-06-10T12:20:41.579Z,29.34
2018-06-10T12:23:12.256Z,29.18
2018-06-10T12:25:42.811Z,29.12
2018-06-10T12:28:13.418Z,29.37
2018-06-10T12:30:44.055Z,29.44
2018-06-10T12:33:14.716Z,29.59
2018-06-10T12:35:45.433Z,29.74
2018-06-10T12:38:16.145Z,29.67
2018-06-10T12:40:46.671Z,29.77
2018-06-10T12:43:17.313Z,29.96
2018-06-10T12:45:47.911Z,30.15
2018-06-10T12:48:18.482Z,30.26
2018-06-10T12:50:51.948Z,30.38
2018-06-10T12:53:22.531Z,30.70
2018-06-10T12:55:53.045Z,30.79
2018-06-10T12:58:23.687Z,30.84
2018-06-10T13:00:54.311Z,31.00
2018-06-10T13:03:24.880Z,30.98
2018-06-10T13:05:55.444Z,30.88
2018-06-10T13:08:25.997Z,31.12
2018-06-10T13:10:56.636Z,31.16
2018-06-10T13:13:27.300Z,31.43
2018-06-10T13:15:57.851Z,31.30
2018-06-10T13:18:28.471Z,31.26
2018-06-10T13:20:59.056Z,31.16
2018-06-10T13:23:29.651Z,31.19
2018-06-10T13:26:00.206Z,31.04
2018-06-10T13:28:30.736Z,30.80
2018-06-10T13:31:01.295Z,30.57
2018-06-10T13:33:31.869Z,30.26
2018-06-10T13:36:02.461Z,30.28
2018-06-10T13:38:33.036Z,30.35
2018-06-10T13:41:03.618Z,30.45
2018-06-10T13:43:34.203Z,30.33
2018-06-10T13:46:04.885Z,30.07
2018-06-10T13:48:35.397Z,30.16
2018-06-10T13:51:05.976Z,30.36
2018-06-10T13:53:36.534Z,30.41
2018-06-10T13:56:07.229Z,30.67
2018-06-10T13:58:37.746Z,30.70
2018-06-10T14:01:08.308Z,30.47
2018-06-10T14:03:38.854Z,30.25
2018-06-10T14:06:09.455Z,29.97
2018-06-10T14:08:39.948Z,29.74
2018-06-10T14:11:10.550Z,29.77
2018-06-10T14:13:41.084Z,29.68
2018-06-10T14:16:11.658Z,29.64
2018-06-10T14:18:42.190Z,29.38
2018-06-10T14:21:12.786Z,29.57
2018-06-10T14:23:43.324Z,29.84
2018-06-10T14:26:13.897Z,30.15
2018-06-10T14:28:44.442Z,30.20
2018-06-10T14:31:14.977Z,30.08
2018-06-10T14:33:45.598Z,30.04
2018-06-10T14:36:16.204Z,29.94
2018-06-10T14:38:46.760Z,29.71
2018-06-10T14:41:17.295Z,29.70
2018-06-10T14:43:47.880Z,29.67
2018-06-10T14:46:18.457Z,29.88
2018-06-10T14:48:48.978Z,29.67
2018-06-10T14:51:19.553Z,29.60
2018-06-10T14:53:50.108Z,29.34
2018-06-10T14:56:20.673Z,29.45
2018-06-10T14:58:51.282Z,29.62
2018-06-10T15:01:21.596Z,29.65
2018-06-10T15:03:52.118Z,29.76
2018-06-10T15:06:22.665Z,29.82
2018-06-10T15:08:53.237Z,29.72
2018-06-10T15:11:24.239Z,29.83
2018-06-10T15:13:55.050Z,29.82
2018-06-10T15:16:26.011Z,29.90
2018-06-10T15:18:56.680Z,29.94
2018-06-10T15:21:27.695Z,29.94
2018-06-10T15:23:58.497Z,29.89
2018-06-10T15:26:29.282Z,29.92
2018-06-10T15:28:59.960Z,29.91
2018-06-10T15:31:30.813Z,29.94
2018-06-10T15:34:01.381Z,30.12
2018-06-10T15:36:32.281Z,29.95
2018-06-10T15:39:03.323Z,29.76
2018-06-10T15:41:33.850Z,29.46
2018-06-10T15:44:04.417Z,29.19
2018-06-10T15:46:35.002Z,29.12
2018-06-10T15:49:05.565Z,29.01
2018-06-10T15:51:36.121Z,28.89
2018-06-10T15:54:06.790Z,28.75
2018-06-10T15:56:37.280Z,28.56
2018-06-10T15:59:07.817Z,28.41
2018-06-10T16:01:38.350Z,28.31
2018-06-10T16:04:08.912Z,28.18
2018-06-10T16:07:13.332Z,28.12
2018-06-10T16:09:43.877Z,28.02
2018-06-10T16:12:14.418Z,27.94
2018-06-10T16:17:21.808Z,27.98
2018-06-10T16:19:52.365Z,27.85
2018-06-10T16:22:22.880Z,27.80
2018-06-10T16:24:53.443Z,27.74
2018-06-10T16:27:23.941Z,27.67
2018-06-10T16:29:54.512Z,27.59
2018-06-10T16:32:25.052Z,27.46
2018-06-10T16:34:55.578Z,27.39
2018-06-10T16:37:26.128Z,27.36
2018-06-10T16:39:56.657Z,27.28
2018-06-10T16:42:27.213Z,27.17
2018-06-10T16:44:57.764Z,27.03
2018-06-10T16:47:28.286Z,27.00
2018-06-10T16:49:58.853Z,26.94
2018-06-10T16:52:29.436Z,26.79
2018-06-10T16:54:59.960Z,26.74
2018-06-10T16:57:30.465Z,26.66
2018-06-10T17:00:01.044Z,26.53
2018-06-10T17:02:31.597Z,26.49
2018-06-10T17:05:02.184Z,26.33
2018-06-10T17:07:32.725Z,26.31
2018-06-10T17:10:03.319Z,26.23
2018-06-10T17:12:33.890Z,26.16
2018-06-10T17:15:04.530Z,26.22
2018-06-10T17:17:35.077Z,26.12
2018-06-10T17:20:05.746Z,26.04
2018-06-10T17:22:36.304Z,25.98
2018-06-10T17:25:06.863Z,25.84
2018-06-10T17:27:37.509Z,25.71
2018-06-10T17:30:08.108Z,25.66
2018-06-10T17:32:38.703Z,25.52
2018-06-10T17:35:09.259Z,25.49
2018-06-10T17:37:39.814Z,25.43
2018-06-10T17:40:10.424Z,25.41
2018-06-10T17:42:40.984Z,25.40
2018-06-10T17:45:11.558Z,25.40
2018-06-10T17:47:42.169Z,25.39
2018-06-10T17:50:12.718Z,25.41
2018-06-10T17:52:43.263Z,25.47
2018-06-10T17:55:14.037Z,25.41
2018-06-10T17:57:44.680Z,25.33
2018-06-10T18:00:15.421Z,25.27
2018-06-10T18:02:45.960Z,25.13
2018-06-10T18:05:16.529Z,25.12
2018-06-10T18:07:47.089Z,25.07
2018-06-10T18:10:17.649Z,24.99
2018-06-10T18:12:48.232Z,25.01
2018-06-10T18:15:18.862Z,24.95
2018-06-10T18:17:49.398Z,24.93
2018-06-10T18:20:19.989Z,24.95
2018-06-10T18:25:35.340Z,24.87
2018-06-10T18:28:06.001Z,24.81
2018-06-10T18:30:36.607Z,24.74
2018-06-10T18:33:07.222Z,24.78
2018-06-10T18:35:37.822Z,24.64
2018-06-10T18:38:08.409Z,24.60
2018-06-10T18:40:39.058Z,24.54
2018-06-10T18:43:09.700Z,24.56
2018-06-10T18:45:40.316Z,24.47
2018-06-10T18:48:10.946Z,24.53
2018-06-10T18:50:41.606Z,24.40
2018-06-10T18:53:12.295Z,24.37
2018-06-10T18:55:42.848Z,24.32
2018-06-10T18:58:13.526Z,24.23
2018-06-10T19:00:44.186Z,24.18
2018-06-10T19:03:14.791Z,24.11
2018-06-10T19:05:45.461Z,24.05
2018-06-10T19:08:16.041Z,24.07
2018-06-10T19:10:46.763Z,24.00
2018-06-10T19:13:17.343Z,23.95
2018-06-10T19:15:48.028Z,23.83
2018-06-10T19:18:18.608Z,23.76
2018-06-10T19:20:49.245Z,23.67
2018-06-10T19:23:19.834Z,23.60
2018-06-10T19:25:50.429Z,23.62
2018-06-10T19:28:21.037Z,23.55
2018-06-10T19:30:51.651Z,23.51
2018-06-10T19:33:22.268Z,23.46
2018-06-10T19:35:52.832Z,23.35
2018-06-10T19:38:23.426Z,23.30
2018-06-10T19:40:54.041Z,23.19
2018-06-10T19:43:24.325Z,23.11
2018-06-10T19:45:54.774Z,23.07
2018-06-10T19:48:25.363Z,23.05
2018-06-10T19:50:55.604Z,23.04
2018-06-10T19:53:26.092Z,22.97
2018-06-10T19:55:56.702Z,22.90
2018-06-10T19:58:27.554Z,22.93
2018-06-10T20:00:58.388Z,22.88
2018-06-10T20:03:29.023Z,22.88
2018-06-10T20:05:59.539Z,22.79
2018-06-10T20:08:30.152Z,22.71
2018-06-10T20:11:00.726Z,22.66
2018-06-10T20:13:31.328Z,22.71
2018-06-10T20:16:01.901Z,22.56
2018-06-10T20:18:32.533Z,22.48
2018-06-10T20:21:03.082Z,22.48
2018-06-10T20:23:33.715Z,22.45
2018-06-10T20:26:04.392Z,22.47
2018-06-10T20:28:34.961Z,22.41
2018-06-10T20:31:05.585Z,22.31
2018-06-10T20:33:36.279Z,22.29
2018-06-10T20:36:06.880Z,22.22
2018-06-10T20:38:37.472Z,22.18
2018-06-10T20:41:08.146Z,22.18
2018-06-10T20:43:38.715Z,22.08
2018-06-10T20:46:09.281Z,22.01
2018-06-10T20:48:39.965Z,22.01
2018-06-10T20:51:10.541Z,21.93
2018-06-10T20:53:42.128Z,21.87
2018-06-10T20:56:12.708Z,21.82
2018-06-10T20:58:43.372Z,21.83
2018-06-10T21:01:13.928Z,21.80
2018-06-10T21:03:44.777Z,21.71
2018-06-10T21:06:15.337Z,21.65
2018-06-10T21:08:45.972Z,21.59
2018-06-10T21:11:16.486Z,21.53
2018-06-10T21:13:47.108Z,21.48
2018-06-10T21:16:17.630Z,21.52
2018-06-10T21:18:48.269Z,21.46
2018-06-10T21:21:18.855Z,21.45
2018-06-10T21:23:49.525Z,21.39
2018-06-10T21:26:20.074Z,21.27
2018-06-10T21:28:50.649Z,21.36
2018-06-10T21:31:21.250Z,21.20
2018-06-10T21:33:51.840Z,21.11
2018-06-10T21:36:22.424Z,21.11
2018-06-10T21:38:52.959Z,21.05
2018-06-10T21:41:23.519Z,21.00
2018-06-10T21:43:54.069Z,21.00
2018-06-10T21:46:24.620Z,20.93
2018-06-10T21:48:55.165Z,20.93
2018-06-10T21:51:25.752Z,20.89
2018-06-10T21:53:56.354Z,20.84
2018-06-10T21:56:26.942Z,20.81
2018-06-10T21:58:57.496Z,20.74
2018-06-10T22:01:28.082Z,20.73
2018-06-10T22:03:58.640Z,20.71
2018-06-10T22:06:29.301Z,20.65
2018-06-10T22:08:59.852Z,20.57
2018-06-10T22:11:30.513Z,20.53
2018-06-10T22:14:01.032Z,20.55
2018-06-10T22:16:31.720Z,20.40
2018-06-10T22:19:02.281Z,20.40
2018-06-10T22:21:32.824Z,20.34
2018-06-10T22:24:03.399Z,20.31
2018-06-10T22:26:34.031Z,20.27
2018-06-10T22:29:05.199Z,20.24
2018-06-10T22:31:35.743Z,20.30
2018-06-10T22:34:06.317Z,20.20
2018-06-10T22:36:36.907Z,20.23
2018-06-10T22:39:09.051Z,20.20
2018-06-10T22:41:39.727Z,20.10
2018-06-10T22:44:10.275Z,20.00
2018-06-10T22:46:40.890Z,19.96
2018-06-10T22:49:11.453Z,19.85
2018-06-10T22:51:42.022Z,19.80
2018-06-10T22:54:29.575Z,19.82
2018-06-10T22:57:00.188Z,19.71
2018-06-10T22:59:30.709Z,19.65
2018-06-10T23:02:01.258Z,19.62
2018-06-10T23:04:31.801Z,19.64
2018-06-10T23:07:02.396Z,19.64
2018-06-10T23:09:32.974Z,19.78
2018-06-10T23:12:03.514Z,19.63
2018-06-10T23:14:34.095Z,19.60
2018-06-10T23:17:04.728Z,19.61
2018-06-10T23:19:35.312Z,19.53
2018-06-10T23:22:05.862Z,19.57
2018-06-10T23:24:36.438Z,19.52
2018-06-10T23:27:06.946Z,19.50
2018-06-10T23:29:37.551Z,19.52
2018-06-10T23:32:08.112Z,19.52
2018-06-10T23:34:38.676Z,19.50
2018-06-10T23:37:09.250Z,19.54
2018-06-10T23:39:39.789Z,19.55
2018-06-10T23:42:10.351Z,19.55
2018-06-10T23:44:40.907Z,19.60
2018-06-10T23:47:11.425Z,19.52
2018-06-10T23:49:41.999Z,19.59
2018-06-10T23:52:12.544Z,19.54
2018-06-10T23:54:43.087Z,19.50
2018-06-10T23:57:13.618Z,19.48
2018-06-10T23:59:44.204Z,19.48
